SVA261 OEJN-LTFM
Flight info
| Callsign | SVA261 |
|---|---|
| Flight time | 3h 28m |
| Altitude | 34000 |
| Route | BOMOX M686 GIBEL L300 OTEMO T55 ORBIB/N0462F360 T55 GINDI W8 ALPID/N0457F350 DCT GESON/N0458F360 Q777 RASDA M855 TOMBI UA16 KFK UM855 SISPI |
| Aircraft | A21N/M-SDE2E3FGHIRWXY/LB1 |
Departure
| Time | 2026-05-04 11:31 |
|---|---|
| Airport | King Abdulaziz International Airport (OEJN) |
Arrival
| Time | 2026-05-04 14:59 |
|---|---|
| Airport | İstanbul Airport (LTFM) |
| Time | Latitude | Longitude | Altitude | Speed | Heading |
|---|---|---|---|---|---|
| 2026-05-04 10:46 | 21.66690 | 39.17230 | 33 ft | 0 kts | 250° |
| 2026-05-04 11:19 | 21.66692 | 39.17235 | 33 ft | 4 kts | 250° |
| 2026-05-04 11:19 | 21.66700 | 39.17263 | 30 ft | 4 kts | 253° |
| 2026-05-04 11:19 | 21.66708 | 39.17291 | 32 ft | 4 kts | 259° |
| 2026-05-04 11:19 | 21.66712 | 39.17319 | 33 ft | 4 kts | 281° |
| 2026-05-04 11:20 | 21.66705 | 39.17340 | 33 ft | 2 kts | 339° |
| 2026-05-04 11:20 | 21.66704 | 39.17341 | 33 ft | 0 kts | 340° |
| 2026-05-04 11:24 | 21.67105 | 39.17330 | 32 ft | 18 kts | 38° |
| 2026-05-04 11:25 | 21.67192 | 39.17434 | 33 ft | 17 kts | 62° |
| 2026-05-04 11:25 | 21.67258 | 39.17476 | 34 ft | 12 kts | 347° |
| 2026-05-04 11:25 | 21.67356 | 39.17439 | 34 ft | 19 kts | 339° |
| 2026-05-04 11:26 | 21.67685 | 39.17309 | 34 ft | 31 kts | 338° |
| 2026-05-04 11:27 | 21.67433 | 39.16272 | 33 ft | 15 kts | 160° |
| 2026-05-04 11:28 | 21.67353 | 39.16302 | 33 ft | 23 kts | 161° |
| 2026-05-04 11:28 | 21.67078 | 39.16411 | 33 ft | 40 kts | 160° |
| 2026-05-04 11:28 | 21.66899 | 39.16482 | 33 ft | 41 kts | 160° |
| 2026-05-04 11:28 | 21.66642 | 39.16584 | 33 ft | 38 kts | 160° |
| 2026-05-04 11:29 | 21.66397 | 39.16683 | 33 ft | 37 kts | 160° |
| 2026-05-04 11:29 | 21.66235 | 39.16728 | 33 ft | 7 kts | 195° |
| 2026-05-04 11:29 | 21.66206 | 39.16687 | 33 ft | 7 kts | 248° |
| 2026-05-04 11:29 | 21.66181 | 39.16618 | 33 ft | 12 kts | 249° |
| 2026-05-04 11:31 | 21.70737 | 39.14866 | 1149 ft | 153 kts | 355° |
| 2026-05-04 11:33 | 21.79777 | 39.12654 | 3922 ft | 247 kts | 334° |
| 2026-05-04 11:33 | 21.81275 | 39.11799 | 4267 ft | 257 kts | 334° |
| 2026-05-04 11:33 | 21.82909 | 39.10863 | 4605 ft | 269 kts | 334° |
| 2026-05-04 11:34 | 21.84575 | 39.09931 | 4805 ft | 271 kts | 335° |
| 2026-05-04 11:34 | 21.86258 | 39.09014 | 4900 ft | 270 kts | 335° |
| 2026-05-04 11:34 | 21.87975 | 39.08106 | 4954 ft | 288 kts | 336° |
| 2026-05-04 11:34 | 21.89908 | 39.07146 | 5002 ft | 324 kts | 337° |
| 2026-05-04 11:35 | 21.91999 | 39.06145 | 5038 ft | 327 kts | 337° |
| 2026-05-04 11:35 | 21.94083 | 39.05154 | 5088 ft | 327 kts | 338° |
| 2026-05-04 11:35 | 21.96170 | 39.04158 | 5514 ft | 329 kts | 338° |
| 2026-05-04 11:35 | 21.98257 | 39.03170 | 6422 ft | 327 kts | 338° |
| 2026-05-04 11:36 | 22.00358 | 39.02184 | 7200 ft | 333 kts | 337° |
| 2026-05-04 11:36 | 22.02499 | 39.01177 | 7925 ft | 339 kts | 336° |
| 2026-05-04 11:36 | 22.04682 | 39.00144 | 8650 ft | 345 kts | 336° |
| 2026-05-04 11:36 | 22.06897 | 38.99088 | 9404 ft | 350 kts | 336° |
| 2026-05-04 11:37 | 22.09111 | 38.98026 | 10080 ft | 356 kts | 335° |
| 2026-05-04 11:37 | 22.11391 | 38.96925 | 10721 ft | 362 kts | 334° |
| 2026-05-04 11:37 | 22.13705 | 38.95804 | 11381 ft | 367 kts | 334° |
| 2026-05-04 11:37 | 22.16052 | 38.94680 | 12019 ft | 373 kts | 334° |
| 2026-05-04 11:38 | 22.18438 | 38.93539 | 12644 ft | 378 kts | 334° |
| 2026-05-04 11:38 | 22.20858 | 38.92372 | 13300 ft | 383 kts | 333° |
| 2026-05-04 11:38 | 22.23253 | 38.91099 | 13915 ft | 384 kts | 324° |
| 2026-05-04 11:38 | 22.25224 | 38.89200 | 14612 ft | 379 kts | 309° |
| 2026-05-04 11:39 | 22.26885 | 38.86999 | 15297 ft | 378 kts | 304° |
| 2026-05-04 11:39 | 22.28420 | 38.84688 | 15960 ft | 379 kts | 302° |
| 2026-05-04 11:40 | 22.36694 | 38.69836 | 18950 ft | 404 kts | 298° |
| 2026-05-04 11:41 | 22.38105 | 38.67176 | 19331 ft | 409 kts | 298° |
| 2026-05-04 11:41 | 22.39520 | 38.64506 | 19809 ft | 411 kts | 298° |
| 2026-05-04 11:41 | 22.40947 | 38.61809 | 20254 ft | 414 kts | 298° |
| 2026-05-04 11:41 | 22.42381 | 38.59096 | 20698 ft | 417 kts | 298° |
| 2026-05-04 11:42 | 22.43823 | 38.56362 | 21156 ft | 419 kts | 297° |
| 2026-05-04 11:42 | 22.45252 | 38.53649 | 21590 ft | 422 kts | 297° |
| 2026-05-04 11:42 | 22.46705 | 38.50882 | 22033 ft | 425 kts | 297° |
| 2026-05-04 11:42 | 22.48210 | 38.48119 | 22455 ft | 429 kts | 303° |
| 2026-05-04 11:43 | 22.50202 | 38.45698 | 22899 ft | 434 kts | 313° |
| 2026-05-04 11:43 | 22.52431 | 38.43466 | 23321 ft | 437 kts | 315° |
| 2026-05-04 11:43 | 22.54737 | 38.41301 | 23695 ft | 440 kts | 316° |
| 2026-05-04 11:43 | 22.57085 | 38.39169 | 24041 ft | 442 kts | 317° |
| 2026-05-04 11:44 | 22.59471 | 38.37041 | 24392 ft | 445 kts | 317° |
| 2026-05-04 11:44 | 22.61872 | 38.34923 | 24733 ft | 447 kts | 317° |
| 2026-05-04 11:44 | 22.64297 | 38.32798 | 25071 ft | 449 kts | 317° |
| 2026-05-04 11:44 | 22.66735 | 38.30668 | 25407 ft | 451 kts | 317° |
| 2026-05-04 11:45 | 22.69187 | 38.28528 | 25744 ft | 453 kts | 317° |
| 2026-05-04 11:45 | 22.71647 | 38.26385 | 26056 ft | 455 kts | 317° |
| 2026-05-04 11:45 | 22.74087 | 38.24260 | 26375 ft | 457 kts | 316° |
| 2026-05-04 11:45 | 22.76575 | 38.22094 | 26706 ft | 459 kts | 316° |
| 2026-05-04 11:46 | 22.79061 | 38.19929 | 27121 ft | 458 kts | 316° |
| 2026-05-04 11:46 | 22.81548 | 38.17766 | 27590 ft | 457 kts | 316° |
| 2026-05-04 11:46 | 22.84024 | 38.15612 | 28061 ft | 455 kts | 316° |
| 2026-05-04 11:46 | 22.86493 | 38.13466 | 28522 ft | 454 kts | 316° |
| 2026-05-04 11:47 | 22.88950 | 38.11327 | 28987 ft | 452 kts | 315° |
| 2026-05-04 11:47 | 22.91394 | 38.09198 | 29464 ft | 451 kts | 315° |
| 2026-05-04 11:47 | 22.93839 | 38.07067 | 29923 ft | 449 kts | 315° |
| 2026-05-04 11:47 | 22.96267 | 38.04948 | 30310 ft | 447 kts | 315° |
| 2026-05-04 11:48 | 22.98686 | 38.02836 | 30684 ft | 446 kts | 315° |
| 2026-05-04 11:48 | 23.01096 | 38.00730 | 31065 ft | 444 kts | 314° |
| 2026-05-04 11:48 | 23.03500 | 37.98628 | 31436 ft | 443 kts | 314° |
| 2026-05-04 11:48 | 23.05897 | 37.96530 | 31791 ft | 442 kts | 314° |
| 2026-05-04 11:49 | 23.08285 | 37.94440 | 32156 ft | 440 kts | 314° |
| 2026-05-04 11:49 | 23.10636 | 37.92380 | 32512 ft | 439 kts | 314° |
| 2026-05-04 11:49 | 23.13012 | 37.90297 | 32865 ft | 438 kts | 314° |
| 2026-05-04 11:49 | 23.15377 | 37.88222 | 33220 ft | 436 kts | 313° |
| 2026-05-04 11:50 | 23.17734 | 37.86154 | 33550 ft | 434 kts | 313° |
| 2026-05-04 11:50 | 23.20066 | 37.84110 | 33738 ft | 427 kts | 313° |
| 2026-05-04 11:50 | 23.22379 | 37.82076 | 33815 ft | 429 kts | 313° |
| 2026-05-04 11:51 | 23.27056 | 37.77938 | 33854 ft | 437 kts | 313° |
| 2026-05-04 11:51 | 23.31773 | 37.73766 | 33866 ft | 435 kts | 313° |
| 2026-05-04 11:52 | 23.36478 | 37.69647 | 33868 ft | 433 kts | 313° |
| 2026-05-04 11:52 | 23.41193 | 37.65523 | 33866 ft | 435 kts | 313° |
| 2026-05-04 11:53 | 23.45912 | 37.61386 | 33872 ft | 436 kts | 313° |
| 2026-05-04 11:53 | 23.50607 | 37.57264 | 33880 ft | 434 kts | 313° |
| 2026-05-04 11:55 | 23.69455 | 37.40634 | 33875 ft | 435 kts | 312° |
| 2026-05-04 11:56 | 23.74166 | 37.36463 | 33879 ft | 437 kts | 312° |
| 2026-05-04 11:56 | 23.78885 | 37.32280 | 33879 ft | 436 kts | 312° |
| 2026-05-04 11:57 | 23.83562 | 37.28131 | 33884 ft | 435 kts | 312° |
| 2026-05-04 11:57 | 23.88268 | 37.23953 | 33882 ft | 436 kts | 312° |
| 2026-05-04 11:58 | 23.92973 | 37.19768 | 33892 ft | 436 kts | 312° |
| 2026-05-04 11:58 | 23.97680 | 37.15580 | 33885 ft | 436 kts | 312° |
| 2026-05-04 11:59 | 24.02376 | 37.11398 | 33882 ft | 436 kts | 312° |
| 2026-05-04 11:59 | 24.07079 | 37.07205 | 33882 ft | 436 kts | 312° |
| 2026-05-04 12:00 | 24.11784 | 37.03006 | 33897 ft | 436 kts | 312° |
| 2026-05-04 12:00 | 24.16486 | 36.98806 | 33892 ft | 436 kts | 311° |
| 2026-05-04 12:01 | 24.21181 | 36.94611 | 33898 ft | 435 kts | 311° |
| 2026-05-04 12:02 | 24.38247 | 36.79284 | 33904 ft | 457 kts | 312° |
| 2026-05-04 12:03 | 24.43145 | 36.74905 | 33905 ft | 454 kts | 311° |
| 2026-05-04 12:03 | 24.48043 | 36.70502 | 33907 ft | 455 kts | 311° |
| 2026-05-04 12:04 | 24.52928 | 36.66102 | 33910 ft | 453 kts | 311° |
| 2026-05-04 12:04 | 24.57756 | 36.61746 | 33912 ft | 452 kts | 311° |
| 2026-05-04 12:05 | 24.60082 | 36.59462 | 33921 ft | 441 kts | 301° |
| 2026-05-04 12:05 | 24.61730 | 36.56712 | 33938 ft | 425 kts | 289° |
| 2026-05-04 12:05 | 24.64046 | 36.50764 | 33914 ft | 421 kts | 284° |
| 2026-05-04 12:06 | 24.66061 | 36.44759 | 33911 ft | 417 kts | 283° |
| 2026-05-04 12:06 | 24.67974 | 36.38734 | 33916 ft | 418 kts | 283° |
| 2026-05-04 12:07 | 24.69854 | 36.32688 | 33919 ft | 418 kts | 282° |
| 2026-05-04 12:07 | 24.71723 | 36.26643 | 33920 ft | 416 kts | 282° |
| 2026-05-04 12:08 | 24.73572 | 36.20646 | 33920 ft | 416 kts | 282° |
| 2026-05-04 12:08 | 24.75430 | 36.14611 | 33920 ft | 417 kts | 282° |
| 2026-05-04 12:09 | 24.77287 | 36.08573 | 33921 ft | 416 kts | 282° |
| 2026-05-04 12:09 | 24.79138 | 36.02551 | 33922 ft | 415 kts | 282° |
| 2026-05-04 12:10 | 24.80990 | 35.96516 | 33924 ft | 416 kts | 282° |
| 2026-05-04 12:10 | 24.82839 | 35.90479 | 33924 ft | 416 kts | 282° |
| 2026-05-04 12:11 | 24.84682 | 35.84458 | 33925 ft | 415 kts | 282° |
| 2026-05-04 12:11 | 24.86527 | 35.78418 | 33928 ft | 416 kts | 282° |
| 2026-05-04 12:12 | 24.88368 | 35.72379 | 33930 ft | 416 kts | 282° |
| 2026-05-04 12:12 | 24.90206 | 35.66348 | 33930 ft | 415 kts | 282° |
| 2026-05-04 12:14 | 24.97518 | 35.42230 | 33932 ft | 416 kts | 283° |
| 2026-05-04 12:15 | 24.99345 | 35.36182 | 33932 ft | 416 kts | 283° |
| 2026-05-04 12:15 | 25.01166 | 35.30144 | 33934 ft | 415 kts | 283° |
| 2026-05-04 12:16 | 25.02983 | 35.24108 | 33930 ft | 415 kts | 283° |
| 2026-05-04 12:16 | 25.04803 | 35.18055 | 33946 ft | 416 kts | 284° |
| 2026-05-04 12:17 | 25.07329 | 35.13456 | 33952 ft | 433 kts | 302° |
| 2026-05-04 12:17 | 25.11387 | 35.08484 | 33946 ft | 438 kts | 305° |
| 2026-05-04 12:18 | 25.15620 | 35.03654 | 33947 ft | 437 kts | 306° |
| 2026-05-04 12:18 | 25.19913 | 34.98872 | 33953 ft | 438 kts | 307° |
| 2026-05-04 12:19 | 25.24206 | 34.94136 | 33947 ft | 439 kts | 307° |
| 2026-05-04 12:19 | 25.28536 | 34.89385 | 33954 ft | 438 kts | 307° |
| 2026-05-04 12:20 | 25.32845 | 34.84666 | 33965 ft | 439 kts | 307° |
| 2026-05-04 12:20 | 25.37188 | 34.79911 | 33976 ft | 439 kts | 307° |
| 2026-05-04 12:21 | 25.41524 | 34.75163 | 33984 ft | 438 kts | 307° |
| 2026-05-04 12:21 | 25.45853 | 34.70420 | 33989 ft | 438 kts | 307° |
| 2026-05-04 12:22 | 25.50188 | 34.65663 | 33996 ft | 439 kts | 307° |
| 2026-05-04 12:22 | 25.54518 | 34.60905 | 33999 ft | 438 kts | 307° |
| 2026-05-04 12:23 | 25.58693 | 34.56033 | 33998 ft | 435 kts | 304° |
| 2026-05-04 12:23 | 25.62689 | 34.51004 | 34000 ft | 434 kts | 303° |
| 2026-05-04 12:24 | 25.66628 | 34.45944 | 33997 ft | 433 kts | 303° |
| 2026-05-04 12:24 | 25.70540 | 34.40874 | 33989 ft | 432 kts | 303° |
| 2026-05-04 12:25 | 25.74434 | 34.35810 | 33989 ft | 431 kts | 303° |
| 2026-05-04 12:25 | 25.78327 | 34.30733 | 33992 ft | 431 kts | 303° |
| 2026-05-04 12:26 | 25.82190 | 34.25688 | 33990 ft | 431 kts | 303° |
| 2026-05-04 12:26 | 25.86067 | 34.20614 | 33994 ft | 431 kts | 303° |
| 2026-05-04 12:27 | 25.89947 | 34.15532 | 33992 ft | 431 kts | 303° |
| 2026-05-04 12:27 | 25.93827 | 34.10459 | 33989 ft | 431 kts | 303° |
| 2026-05-04 12:28 | 25.97705 | 34.05385 | 33989 ft | 431 kts | 303° |
| 2026-05-04 12:28 | 26.01586 | 34.00302 | 33990 ft | 431 kts | 303° |
| 2026-05-04 12:29 | 26.05459 | 33.95221 | 33993 ft | 430 kts | 303° |
| 2026-05-04 12:29 | 26.09323 | 33.90142 | 33989 ft | 430 kts | 303° |
| 2026-05-04 12:30 | 26.13163 | 33.85086 | 33993 ft | 431 kts | 303° |
| 2026-05-04 12:30 | 26.17026 | 33.79996 | 33999 ft | 430 kts | 303° |
| 2026-05-04 12:31 | 26.20886 | 33.74904 | 33997 ft | 430 kts | 303° |
| 2026-05-04 12:31 | 26.24747 | 33.69802 | 33997 ft | 430 kts | 303° |
| 2026-05-04 12:32 | 26.30530 | 33.62146 | 34001 ft | 430 kts | 303° |
| 2026-05-04 12:33 | 26.34383 | 33.57044 | 33993 ft | 430 kts | 303° |
| 2026-05-04 12:33 | 26.38211 | 33.51965 | 34006 ft | 431 kts | 303° |
| 2026-05-04 12:34 | 26.42061 | 33.46853 | 34004 ft | 430 kts | 303° |
| 2026-05-04 12:34 | 26.45911 | 33.41739 | 34013 ft | 431 kts | 303° |
| 2026-05-04 12:35 | 26.49638 | 33.36782 | 34012 ft | 429 kts | 303° |
| 2026-05-04 12:35 | 26.53323 | 33.31880 | 34009 ft | 430 kts | 303° |
| 2026-05-04 12:36 | 26.56313 | 33.27896 | 34017 ft | 431 kts | 303° |
| 2026-05-04 12:37 | 26.57572 | 33.26219 | 34006 ft | 430 kts | 303° |
| 2026-05-04 12:37 | 26.58320 | 33.25222 | 34007 ft | 430 kts | 303° |
| 2026-05-04 12:38 | 26.60933 | 33.21738 | 34009 ft | 429 kts | 303° |
| 2026-05-04 12:38 | 26.64766 | 33.16620 | 34011 ft | 429 kts | 303° |
| 2026-05-04 12:39 | 26.68602 | 33.11491 | 34000 ft | 430 kts | 303° |
| 2026-05-04 12:39 | 26.72427 | 33.06371 | 34000 ft | 429 kts | 303° |
| 2026-05-04 12:40 | 26.76250 | 33.01247 | 34002 ft | 429 kts | 303° |
| 2026-05-04 12:40 | 26.80073 | 32.96116 | 34005 ft | 429 kts | 303° |
| 2026-05-04 12:41 | 26.83890 | 32.90990 | 34003 ft | 428 kts | 303° |
| 2026-05-04 12:41 | 26.87703 | 32.85861 | 34008 ft | 428 kts | 303° |
| 2026-05-04 12:42 | 26.91514 | 32.80728 | 34008 ft | 429 kts | 303° |
| 2026-05-04 12:42 | 26.95316 | 32.75603 | 34217 ft | 425 kts | 303° |
| 2026-05-04 12:42 | 26.97208 | 32.73057 | 34507 ft | 424 kts | 303° |
| 2026-05-04 12:43 | 26.99095 | 32.70512 | 34717 ft | 426 kts | 303° |
| 2026-05-04 12:43 | 27.00992 | 32.67950 | 34937 ft | 427 kts | 303° |
| 2026-05-04 12:43 | 27.02867 | 32.65416 | 35151 ft | 428 kts | 303° |
| 2026-05-04 12:43 | 27.04772 | 32.62839 | 35374 ft | 429 kts | 302° |
| 2026-05-04 12:44 | 27.06684 | 32.60255 | 35628 ft | 429 kts | 302° |
| 2026-05-04 12:44 | 27.08593 | 32.57669 | 35809 ft | 430 kts | 302° |
| 2026-05-04 12:44 | 27.10499 | 32.55087 | 35924 ft | 429 kts | 302° |
| 2026-05-04 12:45 | 27.14323 | 32.49892 | 36003 ft | 435 kts | 302° |
| 2026-05-04 12:45 | 27.18175 | 32.44655 | 36014 ft | 433 kts | 302° |
| 2026-05-04 12:46 | 27.21977 | 32.39487 | 36027 ft | 431 kts | 302° |
| 2026-05-04 12:46 | 27.25802 | 32.34276 | 36029 ft | 433 kts | 302° |
| 2026-05-04 12:47 | 27.29593 | 32.29030 | 36029 ft | 431 kts | 301° |
| 2026-05-04 12:47 | 27.33293 | 32.23725 | 36033 ft | 430 kts | 301° |
| 2026-05-04 12:48 | 27.36964 | 32.18399 | 36046 ft | 431 kts | 301° |
| 2026-05-04 12:48 | 27.40632 | 32.13053 | 36053 ft | 431 kts | 301° |
| 2026-05-04 12:49 | 27.44279 | 32.07732 | 36061 ft | 424 kts | 301° |
| 2026-05-04 12:49 | 27.47852 | 32.02517 | 36064 ft | 419 kts | 301° |
| 2026-05-04 12:50 | 27.51399 | 31.97316 | 36076 ft | 423 kts | 301° |
| 2026-05-04 12:50 | 27.55006 | 31.92019 | 36087 ft | 422 kts | 301° |
| 2026-05-04 12:51 | 27.58551 | 31.86814 | 36095 ft | 421 kts | 300° |
| 2026-05-04 12:51 | 27.62119 | 31.81564 | 36101 ft | 422 kts | 300° |
| 2026-05-04 12:52 | 27.65691 | 31.76302 | 36118 ft | 422 kts | 300° |
| 2026-05-04 12:52 | 27.69245 | 31.71063 | 36115 ft | 420 kts | 300° |
| 2026-05-04 12:53 | 27.72801 | 31.65813 | 36118 ft | 421 kts | 300° |
| 2026-05-04 12:53 | 27.76357 | 31.60558 | 36126 ft | 421 kts | 300° |
| 2026-05-04 12:54 | 27.79906 | 31.55307 | 36129 ft | 420 kts | 300° |
| 2026-05-04 12:54 | 27.83450 | 31.50056 | 36134 ft | 420 kts | 300° |
| 2026-05-04 12:55 | 27.86967 | 31.44837 | 36135 ft | 420 kts | 300° |
| 2026-05-04 12:55 | 27.90504 | 31.39583 | 36138 ft | 420 kts | 300° |
| 2026-05-04 12:56 | 27.94039 | 31.34328 | 36136 ft | 419 kts | 300° |
| 2026-05-04 12:56 | 27.97568 | 31.29074 | 36137 ft | 419 kts | 300° |
| 2026-05-04 12:57 | 28.01096 | 31.23812 | 36141 ft | 420 kts | 300° |
| 2026-05-04 12:57 | 28.04622 | 31.18552 | 36142 ft | 420 kts | 302° |
| 2026-05-04 12:57 | 28.06738 | 31.16226 | 36161 ft | 435 kts | 318° |
| 2026-05-04 12:58 | 28.09523 | 31.14690 | 36174 ft | 457 kts | 335° |
| 2026-05-04 12:58 | 28.12740 | 31.14119 | 36171 ft | 481 kts | 351° |
| 2026-05-04 12:58 | 28.16133 | 31.14385 | 36160 ft | 494 kts | 358° |
| 2026-05-04 12:59 | 28.22910 | 31.15474 | 36128 ft | 493 kts | 359° |
| 2026-05-04 12:59 | 28.29677 | 31.16628 | 36123 ft | 492 kts | 359° |
| 2026-05-04 13:00 | 28.36466 | 31.17688 | 36124 ft | 493 kts | 358° |
| 2026-05-04 13:00 | 28.43268 | 31.18646 | 36116 ft | 491 kts | 358° |
| 2026-05-04 13:01 | 28.50046 | 31.19526 | 36116 ft | 490 kts | 357° |
| 2026-05-04 13:01 | 28.56836 | 31.20347 | 36119 ft | 491 kts | 356° |
| 2026-05-04 13:02 | 28.63589 | 31.21126 | 36115 ft | 492 kts | 356° |
| 2026-05-04 13:02 | 28.70371 | 31.21909 | 36101 ft | 487 kts | 356° |
| 2026-05-04 13:03 | 28.77128 | 31.22717 | 36111 ft | 490 kts | 356° |
| 2026-05-04 13:03 | 28.83932 | 31.23535 | 36107 ft | 491 kts | 357° |
| 2026-05-04 13:04 | 28.89574 | 31.24219 | 36105 ft | 490 kts | 357° |
| 2026-05-04 13:04 | 28.96352 | 31.25041 | 36097 ft | 490 kts | 357° |
| 2026-05-04 13:05 | 29.03146 | 31.25861 | 36094 ft | 491 kts | 357° |
| 2026-05-04 13:05 | 29.09934 | 31.26684 | 36091 ft | 490 kts | 357° |
| 2026-05-04 13:06 | 29.16719 | 31.27508 | 36099 ft | 490 kts | 356° |
| 2026-05-04 13:06 | 29.23506 | 31.28329 | 36092 ft | 491 kts | 357° |
| 2026-05-04 13:07 | 29.30293 | 31.29152 | 36105 ft | 489 kts | 357° |
| 2026-05-04 13:07 | 29.37056 | 31.30036 | 36083 ft | 495 kts | 4° |
| 2026-05-04 13:07 | 29.40388 | 31.31292 | 36108 ft | 513 kts | 17° |
| 2026-05-04 13:08 | 29.43603 | 31.33147 | 36100 ft | 521 kts | 21° |
| 2026-05-04 13:08 | 29.49916 | 31.37282 | 36080 ft | 522 kts | 23° |
| 2026-05-04 13:09 | 29.56101 | 31.41542 | 36076 ft | 521 kts | 24° |
| 2026-05-04 13:09 | 29.62354 | 31.45902 | 36081 ft | 523 kts | 24° |
| 2026-05-04 13:10 | 29.68543 | 31.50232 | 36082 ft | 524 kts | 24° |
| 2026-05-04 13:10 | 29.74757 | 31.54584 | 36083 ft | 523 kts | 24° |
| 2026-05-04 13:11 | 29.80977 | 31.58939 | 36095 ft | 524 kts | 24° |
| 2026-05-04 13:11 | 29.87214 | 31.63304 | 36122 ft | 525 kts | 24° |
| 2026-05-04 13:11 | 29.90402 | 31.65253 | 36135 ft | 511 kts | 12° |
| 2026-05-04 13:12 | 29.93764 | 31.66248 | 36154 ft | 490 kts | 355° |
| 2026-05-04 13:12 | 29.97105 | 31.66221 | 36162 ft | 473 kts | 343° |
| 2026-05-04 13:12 | 30.00355 | 31.65678 | 36142 ft | 471 kts | 340° |
| 2026-05-04 13:13 | 30.06768 | 31.64333 | 36127 ft | 466 kts | 339° |
| 2026-05-04 13:13 | 30.13090 | 31.62968 | 36050 ft | 466 kts | 340° |
| 2026-05-04 13:14 | 30.19484 | 31.61630 | 36048 ft | 468 kts | 340° |
| 2026-05-04 13:14 | 30.25897 | 31.60348 | 36050 ft | 466 kts | 340° |
| 2026-05-04 13:15 | 30.32305 | 31.59114 | 36050 ft | 466 kts | 341° |
| 2026-05-04 13:15 | 30.38719 | 31.57905 | 36053 ft | 468 kts | 341° |
| 2026-05-04 13:16 | 30.45148 | 31.56714 | 36055 ft | 467 kts | 341° |
| 2026-05-04 13:16 | 30.51557 | 31.55540 | 36050 ft | 465 kts | 341° |
| 2026-05-04 13:17 | 30.57957 | 31.54372 | 36054 ft | 466 kts | 341° |
| 2026-05-04 13:17 | 30.64322 | 31.53211 | 36055 ft | 466 kts | 341° |
| 2026-05-04 13:18 | 30.70719 | 31.52046 | 36063 ft | 464 kts | 341° |
| 2026-05-04 13:18 | 30.77101 | 31.50884 | 36057 ft | 464 kts | 341° |
| 2026-05-04 13:19 | 30.83497 | 31.49718 | 36060 ft | 465 kts | 341° |
| 2026-05-04 13:19 | 30.89876 | 31.48554 | 36061 ft | 464 kts | 341° |
| 2026-05-04 13:20 | 30.96253 | 31.47389 | 36062 ft | 464 kts | 340° |
| 2026-05-04 13:20 | 31.02634 | 31.46219 | 36062 ft | 464 kts | 340° |
| 2026-05-04 13:21 | 31.09020 | 31.45044 | 36058 ft | 464 kts | 341° |
| 2026-05-04 13:21 | 31.15396 | 31.43873 | 36063 ft | 463 kts | 341° |
| 2026-05-04 13:22 | 31.21765 | 31.42697 | 36068 ft | 464 kts | 341° |
| 2026-05-04 13:22 | 31.28147 | 31.41518 | 36067 ft | 464 kts | 341° |
| 2026-05-04 13:23 | 31.34517 | 31.40339 | 36070 ft | 463 kts | 341° |
| 2026-05-04 13:23 | 31.40892 | 31.39156 | 36069 ft | 464 kts | 341° |
| 2026-05-04 13:24 | 31.47237 | 31.37975 | 36069 ft | 464 kts | 341° |
| 2026-05-04 13:24 | 31.53629 | 31.36835 | 36070 ft | 466 kts | 343° |
| 2026-05-04 13:25 | 31.63352 | 31.35627 | 36065 ft | 469 kts | 345° |
| 2026-05-04 13:25 | 31.69863 | 31.34936 | 36067 ft | 469 kts | 345° |
| 2026-05-04 13:26 | 31.76331 | 31.34272 | 36063 ft | 469 kts | 345° |
| 2026-05-04 13:26 | 31.82835 | 31.33605 | 36058 ft | 469 kts | 345° |
| 2026-05-04 13:27 | 31.89350 | 31.32927 | 36053 ft | 470 kts | 345° |
| 2026-05-04 13:27 | 31.95860 | 31.32243 | 36049 ft | 469 kts | 345° |
| 2026-05-04 13:28 | 32.02356 | 31.31555 | 36049 ft | 469 kts | 345° |
| 2026-05-04 13:28 | 32.08870 | 31.30860 | 36047 ft | 470 kts | 345° |
| 2026-05-04 13:29 | 32.15392 | 31.30162 | 36039 ft | 470 kts | 345° |
| 2026-05-04 13:29 | 32.21890 | 31.29468 | 36044 ft | 468 kts | 345° |
| 2026-05-04 13:30 | 32.28383 | 31.28770 | 36036 ft | 469 kts | 345° |
| 2026-05-04 13:30 | 32.34882 | 31.28068 | 36030 ft | 469 kts | 345° |
| 2026-05-04 13:31 | 32.41328 | 31.27374 | 36029 ft | 467 kts | 345° |
| 2026-05-04 13:31 | 32.47791 | 31.26676 | 36026 ft | 466 kts | 345° |
| 2026-05-04 13:32 | 32.54250 | 31.25959 | 36022 ft | 463 kts | 341° |
| 2026-05-04 13:32 | 32.57294 | 31.25036 | 36034 ft | 445 kts | 330° |
| 2026-05-04 13:32 | 32.60163 | 31.23694 | 36024 ft | 441 kts | 328° |
| 2026-05-04 13:33 | 32.65756 | 31.20723 | 36010 ft | 438 kts | 326° |
| 2026-05-04 13:33 | 32.71226 | 31.17646 | 36008 ft | 437 kts | 325° |
| 2026-05-04 13:34 | 32.76703 | 31.14494 | 36008 ft | 437 kts | 325° |
| 2026-05-04 13:34 | 32.82194 | 31.11301 | 36007 ft | 440 kts | 325° |
| 2026-05-04 13:35 | 32.90415 | 31.06499 | 36001 ft | 438 kts | 325° |
| 2026-05-04 13:36 | 32.95885 | 31.03292 | 36000 ft | 439 kts | 325° |
| 2026-05-04 13:36 | 33.01365 | 31.00073 | 35999 ft | 438 kts | 325° |
| 2026-05-04 13:37 | 33.06842 | 30.96880 | 35992 ft | 440 kts | 329° |
| 2026-05-04 13:37 | 33.09853 | 30.95896 | 36013 ft | 458 kts | 342° |
| 2026-05-04 13:37 | 33.13004 | 30.95444 | 36005 ft | 465 kts | 345° |
| 2026-05-04 13:38 | 33.19533 | 30.94906 | 35987 ft | 467 kts | 347° |
| 2026-05-04 13:38 | 33.26012 | 30.94550 | 35979 ft | 466 kts | 348° |
| 2026-05-04 13:39 | 33.32464 | 30.94250 | 35984 ft | 467 kts | 348° |
| 2026-05-04 13:39 | 33.39006 | 30.93971 | 35977 ft | 467 kts | 348° |
| 2026-05-04 13:40 | 33.45440 | 30.93712 | 35972 ft | 465 kts | 348° |
| 2026-05-04 13:40 | 33.51912 | 30.93456 | 35969 ft | 465 kts | 348° |
| 2026-05-04 13:41 | 33.58396 | 30.93200 | 35968 ft | 467 kts | 348° |
| 2026-05-04 13:41 | 33.64870 | 30.92949 | 35963 ft | 465 kts | 348° |
| 2026-05-04 13:42 | 33.74578 | 30.92575 | 35959 ft | 466 kts | 349° |
| 2026-05-04 13:42 | 33.81069 | 30.92322 | 35957 ft | 467 kts | 349° |
| 2026-05-04 13:43 | 33.87571 | 30.92070 | 35950 ft | 467 kts | 349° |
| 2026-05-04 13:43 | 33.94027 | 30.91810 | 35946 ft | 467 kts | 349° |
| 2026-05-04 13:44 | 34.00531 | 30.91482 | 35945 ft | 468 kts | 348° |
| 2026-05-04 13:44 | 34.07051 | 30.91125 | 35937 ft | 469 kts | 348° |
| 2026-05-04 13:45 | 34.13573 | 30.90761 | 35936 ft | 469 kts | 349° |
| 2026-05-04 13:45 | 34.20097 | 30.90395 | 35926 ft | 471 kts | 349° |
| 2026-05-04 13:46 | 34.26658 | 30.90047 | 35928 ft | 472 kts | 349° |
| 2026-05-04 13:46 | 34.33229 | 30.89716 | 35922 ft | 472 kts | 349° |
| 2026-05-04 13:47 | 34.39796 | 30.89392 | 35917 ft | 472 kts | 350° |
| 2026-05-04 13:47 | 34.46387 | 30.89067 | 35915 ft | 474 kts | 350° |
| 2026-05-04 13:48 | 34.52979 | 30.88744 | 35909 ft | 474 kts | 350° |
| 2026-05-04 13:48 | 34.59576 | 30.88431 | 35908 ft | 474 kts | 351° |
| 2026-05-04 13:49 | 34.66132 | 30.88174 | 35901 ft | 475 kts | 352° |
| 2026-05-04 13:49 | 34.72751 | 30.87939 | 35898 ft | 475 kts | 352° |
| 2026-05-04 13:50 | 34.79363 | 30.87718 | 35895 ft | 475 kts | 352° |
| 2026-05-04 13:50 | 34.85975 | 30.87500 | 35887 ft | 475 kts | 352° |
| 2026-05-04 13:51 | 34.92577 | 30.87283 | 35885 ft | 475 kts | 352° |
| 2026-05-04 13:51 | 34.98073 | 30.87103 | 35880 ft | 474 kts | 353° |
| 2026-05-04 13:52 | 35.07954 | 30.86781 | 35877 ft | 474 kts | 353° |
| 2026-05-04 13:53 | 35.14553 | 30.86566 | 35871 ft | 474 kts | 353° |
| 2026-05-04 13:53 | 35.21147 | 30.86345 | 35871 ft | 473 kts | 353° |
| 2026-05-04 13:54 | 35.31013 | 30.86009 | 35865 ft | 473 kts | 353° |
| 2026-05-04 13:55 | 35.40874 | 30.85676 | 35865 ft | 473 kts | 353° |
| 2026-05-04 13:55 | 35.50730 | 30.85349 | 35861 ft | 473 kts | 354° |
| 2026-05-04 13:56 | 35.57330 | 30.85130 | 35860 ft | 475 kts | 354° |
| 2026-05-04 13:57 | 35.67213 | 30.84646 | 35857 ft | 473 kts | 353° |
| 2026-05-04 13:58 | 35.80351 | 30.83857 | 35853 ft | 475 kts | 353° |
| 2026-05-04 13:58 | 35.90239 | 30.83257 | 35850 ft | 473 kts | 353° |
| 2026-05-04 13:59 | 35.96819 | 30.82862 | 35851 ft | 474 kts | 354° |
| 2026-05-04 14:00 | 36.06712 | 30.82358 | 35844 ft | 474 kts | 355° |
| 2026-05-04 14:00 | 36.16536 | 30.82002 | 35849 ft | 472 kts | 355° |
| 2026-05-04 14:01 | 36.23119 | 30.81782 | 35856 ft | 473 kts | 355° |
| 2026-05-04 14:02 | 36.32963 | 30.81460 | 35858 ft | 469 kts | 355° |
| 2026-05-04 14:02 | 36.39481 | 30.81250 | 35866 ft | 469 kts | 355° |
| 2026-05-04 14:03 | 36.45996 | 30.81027 | 35860 ft | 468 kts | 355° |
| 2026-05-04 14:03 | 36.52494 | 30.80799 | 35863 ft | 467 kts | 355° |
| 2026-05-04 14:04 | 36.62207 | 30.80463 | 35872 ft | 467 kts | 355° |
| 2026-05-04 14:04 | 36.68689 | 30.80243 | 35881 ft | 464 kts | 355° |
| 2026-05-04 14:05 | 36.78374 | 30.79908 | 35882 ft | 464 kts | 355° |
| 2026-05-04 14:06 | 36.84819 | 30.79687 | 35887 ft | 463 kts | 356° |
| 2026-05-04 14:06 | 36.91242 | 30.79364 | 35886 ft | 460 kts | 353° |
| 2026-05-04 14:07 | 36.97622 | 30.78710 | 35887 ft | 460 kts | 352° |
| 2026-05-04 14:07 | 37.03999 | 30.77954 | 35886 ft | 460 kts | 352° |
| 2026-05-04 14:08 | 37.10377 | 30.77169 | 35892 ft | 459 kts | 352° |
| 2026-05-04 14:08 | 37.16687 | 30.76383 | 35901 ft | 459 kts | 352° |
| 2026-05-04 14:09 | 37.26228 | 30.75190 | 35909 ft | 459 kts | 352° |
| 2026-05-04 14:10 | 37.35749 | 30.74002 | 35915 ft | 458 kts | 352° |
| 2026-05-04 14:10 | 37.42099 | 30.73174 | 35919 ft | 459 kts | 351° |
| 2026-05-04 14:11 | 37.48455 | 30.72275 | 35929 ft | 460 kts | 351° |
| 2026-05-04 14:11 | 37.58030 | 30.70906 | 35930 ft | 463 kts | 351° |
| 2026-05-04 14:12 | 37.64442 | 30.70072 | 35936 ft | 463 kts | 352° |
| 2026-05-04 14:13 | 37.73983 | 30.68882 | 35955 ft | 464 kts | 352° |
| 2026-05-04 14:13 | 37.80410 | 30.68090 | 35959 ft | 463 kts | 352° |
| 2026-05-04 14:14 | 37.86825 | 30.67328 | 35959 ft | 463 kts | 353° |
| 2026-05-04 14:14 | 37.96391 | 30.66204 | 35960 ft | 461 kts | 351° |
| 2026-05-04 14:15 | 38.09088 | 30.64346 | 35963 ft | 458 kts | 352° |
| 2026-05-04 14:16 | 38.18593 | 30.63031 | 35966 ft | 458 kts | 352° |
| 2026-05-04 14:17 | 38.28080 | 30.61747 | 35970 ft | 456 kts | 352° |
| 2026-05-04 14:18 | 38.37550 | 30.60465 | 35974 ft | 455 kts | 352° |
| 2026-05-04 14:19 | 38.50171 | 30.58766 | 35979 ft | 456 kts | 352° |
| 2026-05-04 14:19 | 38.56484 | 30.57915 | 35976 ft | 455 kts | 352° |
| 2026-05-04 14:20 | 38.62777 | 30.57065 | 35978 ft | 455 kts | 353° |
| 2026-05-04 14:20 | 38.69056 | 30.56216 | 35982 ft | 457 kts | 353° |
| 2026-05-04 14:21 | 38.78491 | 30.54678 | 35996 ft | 453 kts | 342° |
| 2026-05-04 14:21 | 38.82451 | 30.52749 | 35992 ft | 455 kts | 336° |
| 2026-05-04 14:22 | 38.88202 | 30.49402 | 35986 ft | 456 kts | 335° |
| 2026-05-04 14:22 | 38.93934 | 30.45869 | 35987 ft | 455 kts | 334° |
| 2026-05-04 14:23 | 39.02428 | 30.40507 | 35984 ft | 456 kts | 334° |
| 2026-05-04 14:24 | 39.08113 | 30.36881 | 35985 ft | 456 kts | 334° |
| 2026-05-04 14:24 | 39.13816 | 30.33227 | 35991 ft | 455 kts | 334° |
| 2026-05-04 14:25 | 39.19462 | 30.29597 | 35994 ft | 456 kts | 334° |
| 2026-05-04 14:25 | 39.27998 | 30.24092 | 35511 ft | 460 kts | 334° |
| 2026-05-04 14:26 | 39.30841 | 30.22250 | 35110 ft | 449 kts | 334° |
| 2026-05-04 14:26 | 39.33602 | 30.20457 | 34745 ft | 438 kts | 334° |
| 2026-05-04 14:26 | 39.36278 | 30.18721 | 34397 ft | 432 kts | 335° |
| 2026-05-04 14:26 | 39.38968 | 30.16976 | 33960 ft | 430 kts | 335° |
| 2026-05-04 14:27 | 39.41609 | 30.15262 | 33218 ft | 426 kts | 335° |
| 2026-05-04 14:27 | 39.44257 | 30.13592 | 32451 ft | 420 kts | 337° |
| 2026-05-04 14:27 | 39.46900 | 30.12010 | 31754 ft | 413 kts | 338° |
| 2026-05-04 14:27 | 39.49515 | 30.10490 | 31058 ft | 407 kts | 339° |
| 2026-05-04 14:28 | 39.52066 | 30.09031 | 30381 ft | 401 kts | 340° |
| 2026-05-04 14:28 | 39.54614 | 30.07589 | 29828 ft | 394 kts | 340° |
| 2026-05-04 14:28 | 39.57122 | 30.06185 | 29042 ft | 393 kts | 340° |
| 2026-05-04 14:28 | 39.59605 | 30.04806 | 28259 ft | 388 kts | 340° |
| 2026-05-04 14:29 | 39.64513 | 30.02087 | 26793 ft | 378 kts | 340° |
| 2026-05-04 14:29 | 39.69301 | 29.99430 | 25383 ft | 370 kts | 340° |
| 2026-05-04 14:30 | 39.71640 | 29.98130 | 24705 ft | 366 kts | 340° |
| 2026-05-04 14:30 | 39.73980 | 29.96825 | 24037 ft | 363 kts | 340° |
| 2026-05-04 14:30 | 39.78573 | 29.94253 | 22585 ft | 356 kts | 340° |
| 2026-05-04 14:31 | 39.80820 | 29.92991 | 21852 ft | 352 kts | 340° |
| 2026-05-04 14:31 | 39.85316 | 29.90461 | 21637 ft | 354 kts | 340° |
| 2026-05-04 14:32 | 39.89895 | 29.88334 | 20896 ft | 346 kts | 352° |
| 2026-05-04 14:32 | 39.92266 | 29.87868 | 20438 ft | 347 kts | 355° |
| 2026-05-04 14:32 | 39.94656 | 29.87561 | 20200 ft | 340 kts | 357° |
| 2026-05-04 14:32 | 39.96989 | 29.87353 | 20102 ft | 339 kts | 358° |
| 2026-05-04 14:33 | 39.99350 | 29.87209 | 20059 ft | 340 kts | 359° |
| 2026-05-04 14:33 | 40.01731 | 29.87111 | 20038 ft | 340 kts | 0° |
| 2026-05-04 14:33 | 40.04104 | 29.87047 | 20020 ft | 340 kts | 1° |
| 2026-05-04 14:33 | 40.06453 | 29.87007 | 20018 ft | 340 kts | 1° |
| 2026-05-04 14:34 | 40.08832 | 29.86982 | 19916 ft | 340 kts | 1° |
| 2026-05-04 14:34 | 40.11190 | 29.86969 | 19482 ft | 337 kts | 1° |
| 2026-05-04 14:34 | 40.13508 | 29.86965 | 18856 ft | 335 kts | 1° |
| 2026-05-04 14:34 | 40.15817 | 29.86966 | 18198 ft | 332 kts | 1° |
| 2026-05-04 14:35 | 40.18129 | 29.86966 | 17497 ft | 328 kts | 1° |
| 2026-05-04 14:35 | 40.20399 | 29.86965 | 16866 ft | 323 kts | 1° |
| 2026-05-04 14:35 | 40.22610 | 29.86964 | 16240 ft | 320 kts | 1° |
| 2026-05-04 14:35 | 40.24836 | 29.86964 | 15733 ft | 316 kts | 1° |
| 2026-05-04 14:36 | 40.27058 | 29.86962 | 15792 ft | 326 kts | 1° |
| 2026-05-04 14:36 | 40.29325 | 29.86957 | 15788 ft | 322 kts | 1° |
| 2026-05-04 14:36 | 40.31570 | 29.86949 | 15793 ft | 322 kts | 1° |
| 2026-05-04 14:36 | 40.33801 | 29.86940 | 15787 ft | 323 kts | 1° |
| 2026-05-04 14:37 | 40.36050 | 29.86932 | 15782 ft | 322 kts | 1° |
| 2026-05-04 14:37 | 40.38285 | 29.87138 | 15791 ft | 321 kts | 12° |
| 2026-05-04 14:37 | 40.40441 | 29.87969 | 15800 ft | 323 kts | 19° |
| 2026-05-04 14:37 | 40.42496 | 29.89093 | 15814 ft | 322 kts | 24° |
| 2026-05-04 14:38 | 40.43788 | 29.89926 | 15807 ft | 322 kts | 26° |
| 2026-05-04 14:38 | 40.46369 | 29.91825 | 15816 ft | 324 kts | 30° |
| 2026-05-04 14:38 | 40.47670 | 29.92881 | 15763 ft | 323 kts | 31° |
| 2026-05-04 14:38 | 40.49572 | 29.94362 | 15326 ft | 319 kts | 23° |
| 2026-05-04 14:39 | 40.51657 | 29.95319 | 14637 ft | 317 kts | 14° |
| 2026-05-04 14:39 | 40.53778 | 29.95953 | 14014 ft | 312 kts | 10° |
| 2026-05-04 14:39 | 40.55939 | 29.96388 | 13339 ft | 309 kts | 7° |
| 2026-05-04 14:40 | 40.60226 | 29.96837 | 13216 ft | 308 kts | 3° |
| 2026-05-04 14:40 | 40.62339 | 29.96930 | 12587 ft | 306 kts | 1° |
| 2026-05-04 14:40 | 40.64465 | 29.96858 | 11915 ft | 303 kts | 355° |
| 2026-05-04 14:40 | 40.66570 | 29.96438 | 11443 ft | 307 kts | 350° |
| 2026-05-04 14:41 | 40.68615 | 29.95848 | 11222 ft | 300 kts | 347° |
| 2026-05-04 14:41 | 40.70649 | 29.95147 | 11125 ft | 300 kts | 346° |
| 2026-05-04 14:41 | 40.74657 | 29.93544 | 11056 ft | 301 kts | 343° |
| 2026-05-04 14:42 | 40.78634 | 29.91787 | 11042 ft | 302 kts | 342° |
| 2026-05-04 14:42 | 40.80628 | 29.90872 | 11043 ft | 303 kts | 342° |
| 2026-05-04 14:42 | 40.82595 | 29.89961 | 11029 ft | 302 kts | 342° |
| 2026-05-04 14:43 | 40.84459 | 29.88676 | 11037 ft | 307 kts | 322° |
| 2026-05-04 14:43 | 40.85764 | 29.86395 | 11050 ft | 319 kts | 298° |
| 2026-05-04 14:43 | 40.86393 | 29.83587 | 11056 ft | 324 kts | 285° |
| 2026-05-04 14:43 | 40.86706 | 29.80616 | 11040 ft | 326 kts | 279° |
| 2026-05-04 14:44 | 40.86818 | 29.77623 | 11048 ft | 330 kts | 275° |
| 2026-05-04 14:44 | 40.86820 | 29.74590 | 11039 ft | 328 kts | 274° |
| 2026-05-04 14:44 | 40.86768 | 29.71591 | 11043 ft | 329 kts | 273° |
| 2026-05-04 14:44 | 40.86725 | 29.68558 | 11031 ft | 332 kts | 275° |
| 2026-05-04 14:45 | 40.86802 | 29.65513 | 11024 ft | 327 kts | 279° |
| 2026-05-04 14:45 | 40.87006 | 29.62506 | 11018 ft | 327 kts | 281° |
| 2026-05-04 14:45 | 40.87259 | 29.59561 | 11031 ft | 326 kts | 282° |
| 2026-05-04 14:45 | 40.87538 | 29.56575 | 11027 ft | 327 kts | 282° |
| 2026-05-04 14:46 | 40.87820 | 29.53605 | 11031 ft | 327 kts | 282° |
| 2026-05-04 14:46 | 40.88103 | 29.50622 | 11021 ft | 326 kts | 282° |
| 2026-05-04 14:46 | 40.88398 | 29.47635 | 11020 ft | 326 kts | 285° |
| 2026-05-04 14:46 | 40.89135 | 29.44905 | 11095 ft | 318 kts | 297° |
| 2026-05-04 14:47 | 40.89721 | 29.42033 | 11296 ft | 328 kts | 283° |
| 2026-05-04 14:47 | 40.89952 | 29.38991 | 11325 ft | 331 kts | 283° |
| 2026-05-04 14:47 | 40.89984 | 29.35947 | 10634 ft | 345 kts | 261° |
| 2026-05-04 14:47 | 40.89311 | 29.32798 | 9641 ft | 352 kts | 261° |
| 2026-05-04 14:48 | 40.89018 | 29.29680 | 8982 ft | 339 kts | 272° |
| 2026-05-04 14:48 | 40.88935 | 29.26584 | 8212 ft | 334 kts | 273° |
| 2026-05-04 14:48 | 40.88851 | 29.23525 | 7470 ft | 329 kts | 273° |
| 2026-05-04 14:48 | 40.88848 | 29.20594 | 7362 ft | 302 kts | 278° |
| 2026-05-04 14:49 | 40.88966 | 29.17858 | 7575 ft | 299 kts | 279° |
| 2026-05-04 14:49 | 40.89119 | 29.15130 | 7758 ft | 301 kts | 279° |
| 2026-05-04 14:49 | 40.89290 | 29.12364 | 7742 ft | 306 kts | 284° |
| 2026-05-04 14:49 | 40.89712 | 29.09858 | 7243 ft | 299 kts | 289° |
| 2026-05-04 14:50 | 40.90263 | 29.07208 | 6732 ft | 290 kts | 291° |
| 2026-05-04 14:50 | 40.90821 | 29.04713 | 6551 ft | 271 kts | 291° |
| 2026-05-04 14:50 | 40.91333 | 29.02453 | 6540 ft | 252 kts | 292° |
| 2026-05-04 14:50 | 40.91842 | 29.00218 | 6519 ft | 254 kts | 292° |
| 2026-05-04 14:51 | 40.92362 | 28.97965 | 6097 ft | 256 kts | 292° |
| 2026-05-04 14:51 | 40.92868 | 28.95735 | 5655 ft | 251 kts | 291° |
| 2026-05-04 14:51 | 40.93375 | 28.93479 | 5288 ft | 256 kts | 291° |
| 2026-05-04 14:51 | 40.93857 | 28.91262 | 5131 ft | 252 kts | 291° |
| 2026-05-04 14:52 | 40.94370 | 28.89022 | 5066 ft | 254 kts | 292° |
| 2026-05-04 14:52 | 40.94911 | 28.86815 | 5044 ft | 252 kts | 293° |
| 2026-05-04 14:52 | 40.95464 | 28.84611 | 5035 ft | 253 kts | 293° |
| 2026-05-04 14:52 | 40.96027 | 28.82383 | 5024 ft | 254 kts | 293° |
| 2026-05-04 14:53 | 40.96833 | 28.80366 | 5035 ft | 246 kts | 315° |
| 2026-05-04 14:53 | 40.98133 | 28.78967 | 5039 ft | 242 kts | 338° |
| 2026-05-04 14:53 | 40.99759 | 28.78388 | 5039 ft | 241 kts | 349° |
| 2026-05-04 14:53 | 41.01426 | 28.78029 | 5040 ft | 241 kts | 352° |
| 2026-05-04 14:54 | 41.03068 | 28.77737 | 5041 ft | 240 kts | 353° |
| 2026-05-04 14:54 | 41.04752 | 28.77434 | 4712 ft | 244 kts | 350° |
| 2026-05-04 14:54 | 41.06405 | 28.76948 | 4300 ft | 241 kts | 348° |
| 2026-05-04 14:54 | 41.08004 | 28.76608 | 4344 ft | 237 kts | 352° |
| 2026-05-04 14:55 | 41.09692 | 28.76317 | 3894 ft | 246 kts | 354° |
| 2026-05-04 14:55 | 41.11386 | 28.76093 | 3388 ft | 245 kts | 356° |
| 2026-05-04 14:55 | 41.13060 | 28.75963 | 2958 ft | 230 kts | 359° |
| 2026-05-04 14:55 | 41.14535 | 28.75922 | 2656 ft | 199 kts | 0° |
| 2026-05-04 14:56 | 41.15865 | 28.75893 | 2471 ft | 180 kts | 360° |
| 2026-05-04 14:56 | 41.17073 | 28.75866 | 2115 ft | 166 kts | 0° |
| 2026-05-04 14:56 | 41.18174 | 28.75838 | 1964 ft | 153 kts | 0° |
| 2026-05-04 14:56 | 41.19208 | 28.75818 | 1802 ft | 144 kts | 0° |
| 2026-05-04 14:57 | 41.19937 | 28.75804 | 1649 ft | 140 kts | 360° |
| 2026-05-04 14:57 | 41.20778 | 28.75788 | 1460 ft | 137 kts | 359° |
| 2026-05-04 14:57 | 41.21723 | 28.75762 | 1289 ft | 131 kts | 359° |
| 2026-05-04 14:57 | 41.22665 | 28.75738 | 1115 ft | 140 kts | 359° |
| 2026-05-04 14:58 | 41.23636 | 28.75719 | 934 ft | 138 kts | 359° |
| 2026-05-04 14:58 | 41.24595 | 28.75705 | 714 ft | 141 kts | 358° |
| 2026-05-04 14:58 | 41.25561 | 28.75688 | 511 ft | 133 kts | 357° |
| 2026-05-04 14:58 | 41.26458 | 28.75662 | 361 ft | 135 kts | 357° |
| 2026-05-04 14:59 | 41.27350 | 28.75643 | 332 ft | 106 kts | 359° |
| 2026-05-04 14:59 | 41.27930 | 28.75624 | 332 ft | 70 kts | 351° |
| 2026-05-04 14:59 | 41.28164 | 28.75433 | 335 ft | 0 kts | 272° |
| 2026-05-04 15:01 | 41.28163 | 28.75426 | 335 ft | 6 kts | 269° |
| 2026-05-04 15:01 | 41.28102 | 28.75348 | 335 ft | 15 kts | 186° |
| 2026-05-04 15:01 | 41.27980 | 28.75350 | 333 ft | 20 kts | 179° |
| 2026-05-04 15:01 | 41.27826 | 28.75354 | 333 ft | 25 kts | 178° |
| 2026-05-04 15:02 | 41.27638 | 28.75358 | 334 ft | 29 kts | 180° |
| 2026-05-04 15:02 | 41.27424 | 28.75364 | 331 ft | 32 kts | 179° |
| 2026-05-04 15:02 | 41.27196 | 28.75367 | 332 ft | 33 kts | 179° |
| 2026-05-04 15:02 | 41.27012 | 28.75370 | 334 ft | 10 kts | 190° |
| 2026-05-04 15:03 | 41.26984 | 28.75307 | 332 ft | 10 kts | 261° |
| 2026-05-04 15:03 | 41.26982 | 28.75173 | 332 ft | 18 kts | 270° |
| 2026-05-04 15:03 | 41.26979 | 28.75015 | 334 ft | 21 kts | 269° |
| 2026-05-04 15:03 | 41.26976 | 28.74759 | 334 ft | 33 kts | 269° |
| 2026-05-04 15:04 | 41.26971 | 28.74443 | 334 ft | 35 kts | 270° |
| 2026-05-04 15:04 | 41.26967 | 28.74115 | 334 ft | 35 kts | 269° |
| 2026-05-04 15:04 | 41.26963 | 28.73794 | 334 ft | 35 kts | 269° |
| 2026-05-04 15:04 | 41.26959 | 28.73474 | 334 ft | 31 kts | 269° |
| 2026-05-04 15:05 | 41.26929 | 28.73336 | 332 ft | 8 kts | 210° |
| 2026-05-04 15:05 | 41.26869 | 28.73331 | 333 ft | 12 kts | 180° |
| 2026-05-04 15:05 | 41.26745 | 28.73333 | 333 ft | 25 kts | 179° |
| 2026-05-04 15:05 | 41.26558 | 28.73370 | 332 ft | 27 kts | 159° |
| 2026-05-04 15:06 | 41.26390 | 28.73453 | 332 ft | 12 kts | 148° |
| 2026-05-04 15:06 | 41.26393 | 28.73523 | 334 ft | 13 kts | 75° |
| 2026-05-04 15:06 | 41.26408 | 28.73580 | 334 ft | 0 kts | 71° |